»·PEaware :: N80HC KSBA-KUDD

N80HC :: KSBA-KUDD

FLIGHT INFORMATION

Flight Status: Arrived
Operator: Privately registered:
United States
More flights under this callsign
Pilot: Saso K. (7898)
Aircraft: BEECH AIRCRAFT BARON
(BE58)
More flights by this aircraft type
Origin: KSBA Santa Barbara Mun
United States
Destination: KUDD Bermuda Dunes
United States
More flights between these airports :: More routes between these airports
Route: +FIM V186 ITSME V264 POM V197 PDZ V186 NIKKL V64 TRM
File this flight plan on PilotEdge
Remarks:
Altitude:
(Current/Filed)
11,000ft
Speed:
(Current/Filed)
200kts
Departed: 11-Apr-17 03:47 PM
Arrived: 11-Apr-17 04:55 PM
Distance/Time
Traveled:
182nm/1:08
Distance/Time
To Go:
Arrived

Flight Plot

Page will automatically refresh every two minutes.

Flight plan parsing failed; only flown route is shown


Map Options




Map Legend


Flown Route
Filed Route
Departure Airport
Arrival Airport
Navaid (VOR, NDB)
Fix

Horizontal Profiles

Position Reports

Time Latitude Longitude Heading Altitude Ground
Speed
11-Apr-17 15:33 34.421366 -119.835987 344 11ft 0kts
11-Apr-17 15:34 34.421366 -119.835987 344 11ft 0kts
11-Apr-17 15:35 34.421366 -119.835987 344 11ft 0kts
11-Apr-17 15:36 34.421366 -119.835987 344 11ft 0kts
11-Apr-17 15:37 34.421366 -119.835987 344 11ft 0kts
11-Apr-17 15:38 34.421367 -119.835987 344 11ft 0kts
11-Apr-17 15:39 34.422289 -119.836317 345 11ft 10kts
11-Apr-17 15:40 34.422522 -119.836549 288 11ft 0kts
11-Apr-17 15:41 34.422522 -119.836549 288 11ft 0kts
11-Apr-17 15:42 34.422522 -119.836549 288 11ft 0kts
11-Apr-17 15:43 34.422731 -119.837188 320 12ft 8kts
11-Apr-17 15:44 34.426703 -119.837803 96 10ft 13kts
11-Apr-17 15:45 34.426975 -119.834339 287 10ft 1kts
11-Apr-17 15:46 34.426976 -119.834347 282 10ft 0kts
11-Apr-17 15:47 34.427451 -119.834654 356 10ft 7kts
11-Apr-17 15:48 34.427402 -119.855355 263 553ft 115kts
11-Apr-17 15:49 34.424796 -119.894721 263 1943ft 124kts
11-Apr-17 15:50 34.422826 -119.936405 267 2994ft 127kts
11-Apr-17 15:51 34.421691 -119.985823 264 3081ft 161kts
11-Apr-17 15:52 34.400794 -120.025864 162 3148ft 168kts
11-Apr-17 15:53 34.365266 -119.998647 151 4568ft 145kts
11-Apr-17 15:54 34.336378 -119.966287 93 5650ft 162kts
11-Apr-17 15:55 34.338939 -119.912255 93 6839ft 154kts
11-Apr-17 15:56 34.339947 -119.863139 91 8312ft 146kts
11-Apr-17 15:57 34.340992 -119.812960 91 9663ft 153kts
11-Apr-17 15:58 34.342037 -119.760901 90 10954ft 159kts
11-Apr-17 15:59 34.343219 -119.699992 89 11046ft 199kts
11-Apr-17 16:00 34.344609 -119.629631 89 11042ft 215kts
11-Apr-17 16:01 34.345986 -119.556624 89 11041ft 218kts
11-Apr-17 16:02 34.347328 -119.483119 89 11042ft 219kts
11-Apr-17 16:03 34.348634 -119.409257 89 11044ft 220kts
11-Apr-17 16:04 34.349802 -119.341232 89 11043ft 220kts
11-Apr-17 16:05 34.350320 -119.310426 89 11042ft 220kts
11-Apr-17 16:06 34.351327 -119.248928 89 11043ft 220kts
11-Apr-17 16:07 34.352393 -119.182186 89 11041ft 220kts
11-Apr-17 16:08 34.353521 -119.108344 89 11038ft 220kts
11-Apr-17 16:09 34.354605 -119.034466 90 11036ft 220kts
11-Apr-17 16:10 34.355629 -118.960608 89 11036ft 219kts
11-Apr-17 16:11 34.356602 -118.886747 91 11036ft 218kts
11-Apr-17 16:12 34.335748 -118.819316 115 11045ft 214kts
11-Apr-17 16:13 34.312920 -118.752680 115 11047ft 214kts
11-Apr-17 16:14 34.290360 -118.686639 115 11050ft 213kts
11-Apr-17 16:15 34.267837 -118.620842 115 11053ft 213kts
11-Apr-17 16:16 34.245204 -118.554878 115 11055ft 212kts
11-Apr-17 16:17 34.222679 -118.488920 113 11039ft 214kts
11-Apr-17 16:18 34.200651 -118.416353 112 10153ft 241kts
11-Apr-17 16:19 34.179008 -118.345051 113 9232ft 240kts
11-Apr-17 16:20 34.162352 -118.290326 113 8485ft 233kts
11-Apr-17 16:21 34.140293 -118.217982 113 7476ft 228kts
11-Apr-17 16:22 34.122357 -118.159258 114 7030ft 217kts
11-Apr-17 16:23 34.098233 -118.080409 114 7032ft 212kts
11-Apr-17 16:24 34.077754 -118.013728 114 7036ft 213kts
11-Apr-17 16:25 34.075838 -117.941501 89 7035ft 218kts
11-Apr-17 16:26 34.076932 -117.880766 89 7037ft 219kts
11-Apr-17 16:27 34.078031 -117.794777 97 7025ft 221kts
11-Apr-17 16:28 34.052106 -117.744685 130 7023ft 215kts
11-Apr-17 16:29 34.010481 -117.677807 130 7013ft 215kts
11-Apr-17 16:30 33.981046 -117.630537 130 7009ft 215kts
11-Apr-17 16:31 33.942286 -117.568441 129 7006ft 217kts
11-Apr-17 16:32 33.909973 -117.522872 147 7012ft 213kts
11-Apr-17 16:33 33.862656 -117.483228 149 7003ft 214kts
11-Apr-17 16:34 33.822418 -117.449531 148 7308ft 197kts
11-Apr-17 16:35 33.782350 -117.415636 151 9681ft 144kts
11-Apr-17 16:36 33.754806 -117.392712 152 10956ft 151kts
11-Apr-17 16:37 33.728083 -117.339814 96 11007ft 204kts
11-Apr-17 16:38 33.723518 -117.281472 95 11000ft 214kts
11-Apr-17 16:39 33.717795 -117.210032 96 10999ft 216kts
11-Apr-17 16:40 33.711931 -117.137973 96 10999ft 217kts
11-Apr-17 16:41 33.705973 -117.065941 95 10983ft 217kts
11-Apr-17 16:42 33.700060 -116.994329 94 10955ft 214kts
11-Apr-17 16:43 33.694242 -116.924040 94 10928ft 210kts
11-Apr-17 16:44 33.688467 -116.854860 94 10907ft 205kts
11-Apr-17 16:45 33.682758 -116.787221 94 10908ft 203kts
11-Apr-17 16:46 33.676706 -116.715870 94 10059ft 225kts
11-Apr-17 16:47 33.670742 -116.641492 85 9508ft 215kts
11-Apr-17 16:48 33.685439 -116.569945 73 8518ft 225kts
11-Apr-17 16:49 33.702388 -116.497850 69 7445ft 221kts
11-Apr-17 16:50 33.719626 -116.427398 74 6036ft 216kts
11-Apr-17 16:51 33.734460 -116.356991 73 4029ft 224kts
11-Apr-17 16:52 33.737717 -116.288988 122 2204ft 201kts
11-Apr-17 16:53 33.710641 -116.236638 119 1365ft 160kts
11-Apr-17 16:54 33.726589 -116.217882 284 889ft 149kts
11-Apr-17 16:55 33.740459 -116.255405 296 344ft 116kts
11-Apr-17 16:56 33.750623 -116.280327 295 71ft 13kts
11-Apr-17 16:57 33.749550 -116.278995 116 70ft 13kts
11-Apr-17 16:58 33.747361 -116.273598 116 59ft 19kts
11-Apr-17 16:59 33.745300 -116.268693 152 56ft 4kts
11-Apr-17 17:00 33.745047 -116.269362 181 56ft 7kts

Navigation Log

Ident Type
Flight plan parsing failed, navigation log unavailable